Tresckow, Pennsylvania
Current Conditions -  °F | °C
As of 2:20 AM on Friday 31 Oct 2014 (Local Time) from KHZL Reporting Station
Clear Clear  
Wind Chill: 30°   Ceiling: Unl
Heat Index: 30°   Visibility: 7mi
Dew Point: 30°   Wind: 0mph
Humidity: 100%   Direction: NA
Pressure: 30.03"   Gusts: NA
Location:  40.92°N, 75.96°W
Report Text: KHZL 310620Z AUTO 00000KT 7SM CLR M01/M01 A3003 RMK AO2
Loading
Personal Weather Stations






























Interactive Weather Map
Tropical Storm Tracking
New forecast layout! Learn more

10-Day Weather Forecast

Advertisements
Track Severe Weather on mobile